sensor_id;sensor_type;location;lat;lon;timestamp;temperature;humidity
10175;DHT22;18221;38.704;0.152;2023-11-21T00:01:51;13.00;99.90
10175;DHT22;18221;38.704;0.152;2023-11-21T00:04:19;12.90;99.90
10175;DHT22;18221;38.704;0.152;2023-11-21T00:06:47;12.90;99.90
10175;DHT22;18221;38.704;0.152;2023-11-21T00:09:15;12.80;99.90
10175;DHT22;18221;38.704;0.152;2023-11-21T00:11:43;12.80;99.90
10175;DHT22;18221;38.704;0.152;2023-11-21T00:14:12;12.80;99.90
10175;DHT22;18221;38.704;0.152;2023-11-21T00:16:41;12.80;99.90
10175;DHT22;18221;38.704;0.152;2023-11-21T00:19:11;12.80;99.90
10175;DHT22;18221;38.704;0.152;2023-11-21T00:21:39;12.90;99.90
10175;DHT22;18221;38.704;0.152;2023-11-21T00:24:10;12.90;99.90
10175;DHT22;18221;38.704;0.152;2023-11-21T00:26:39;12.90;99.90
10175;DHT22;18221;38.704;0.152;2023-11-21T00:29:07;13.00;99.90
10175;DHT22;18221;38.704;0.152;2023-11-21T00:31:36;13.00;99.90
10175;DHT22;18221;38.704;0.152;2023-11-21T00:34:07;13.10;99.90
10175;DHT22;18221;38.704;0.152;2023-11-21T00:36:36;13.20;99.90
10175;DHT22;18221;38.704;0.152;2023-11-21T00:39:04;13.20;99.90
10175;DHT22;18221;38.704;0.152;2023-11-21T00:41:33;13.10;99.90
10175;DHT22;18221;38.704;0.152;2023-11-21T00:44:02;13.00;99.90
10175;DHT22;18221;38.704;0.152;2023-11-21T00:46:31;13.00;99.90
10175;DHT22;18221;38.704;0.152;2023-11-21T00:48:59;13.00;99.90
10175;DHT22;18221;38.704;0.152;2023-11-21T00:51:26;13.10;99.90
10175;DHT22;18221;38.704;0.152;2023-11-21T00:53:56;12.90;99.90
10175;DHT22;18221;38.704;0.152;2023-11-21T00:56:24;13.20;99.90
10175;DHT22;18221;38.704;0.152;2023-11-21T00:58:52;13.20;99.90
10175;DHT22;18221;38.704;0.152;2023-11-21T01:01:21;13.30;99.90
10175;DHT22;18221;38.704;0.152;2023-11-21T01:03:50;13.20;99.90
10175;DHT22;18221;38.704;0.152;2023-11-21T01:06:18;13.30;99.90
10175;DHT22;18221;38.704;0.152;2023-11-21T01:08:46;13.30;99.90
10175;DHT22;18221;38.704;0.152;2023-11-21T01:11:16;13.30;99.90
10175;DHT22;18221;38.704;0.152;2023-11-21T01:13:44;13.30;99.90
10175;DHT22;18221;38.704;0.152;2023-11-21T01:16:12;13.30;99.90
10175;DHT22;18221;38.704;0.152;2023-11-21T01:18:40;13.30;99.90
10175;DHT22;18221;38.704;0.152;2023-11-21T01:21:08;13.30;99.90
10175;DHT22;18221;38.704;0.152;2023-11-21T01:23:36;13.30;99.90
10175;DHT22;18221;38.704;0.152;2023-11-21T01:26:04;13.30;99.90
10175;DHT22;18221;38.704;0.152;2023-11-21T01:28:36;13.20;99.90
10175;DHT22;18221;38.704;0.152;2023-11-21T01:31:04;13.20;99.90
10175;DHT22;18221;38.704;0.152;2023-11-21T01:33:33;13.10;99.90
10175;DHT22;18221;38.704;0.152;2023-11-21T01:36:00;13.10;99.90
10175;DHT22;18221;38.704;0.152;2023-11-21T01:38:29;13.10;99.90
10175;DHT22;18221;38.704;0.152;2023-11-21T01:40:58;13.00;99.90
10175;DHT22;18221;38.704;0.152;2023-11-21T01:43:26;13.00;99.90
10175;DHT22;18221;38.704;0.152;2023-11-21T01:45:57;13.00;99.90
10175;DHT22;18221;38.704;0.152;2023-11-21T01:48:26;13.00;99.90
10175;DHT22;18221;38.704;0.152;2023-11-21T01:50:55;13.00;99.90
10175;DHT22;18221;38.704;0.152;2023-11-21T01:53:24;13.00;99.90
10175;DHT22;18221;38.704;0.152;2023-11-21T01:55:55;12.90;99.90
10175;DHT22;18221;38.704;0.152;2023-11-21T01:58:24;12.90;99.90
10175;DHT22;18221;38.704;0.152;2023-11-21T02:00:51;12.90;99.90
10175;DHT22;18221;38.704;0.152;2023-11-21T02:03:22;12.90;99.90
10175;DHT22;18221;38.704;0.152;2023-11-21T02:05:50;12.90;99.90
10175;DHT22;18221;38.704;0.152;2023-11-21T02:08:19;12.90;99.90
10175;DHT22;18221;38.704;0.152;2023-11-21T02:10:47;13.00;99.90
10175;DHT22;18221;38.704;0.152;2023-11-21T02:13:15;13.00;99.90
10175;DHT22;18221;38.704;0.152;2023-11-21T02:15:43;13.00;99.90
10175;DHT22;18221;38.704;0.152;2023-11-21T02:18:11;13.10;99.90
10175;DHT22;18221;38.704;0.152;2023-11-21T02:20:42;13.10;99.90
10175;DHT22;18221;38.704;0.152;2023-11-21T02:23:12;13.20;99.90
10175;DHT22;18221;38.704;0.152;2023-11-21T02:25:40;13.20;99.90
10175;DHT22;18221;38.704;0.152;2023-11-21T02:28:08;13.20;99.90
10175;DHT22;18221;38.704;0.152;2023-11-21T02:30:38;13.20;99.90
10175;DHT22;18221;38.704;0.152;2023-11-21T02:33:06;13.30;99.90
10175;DHT22;18221;38.704;0.152;2023-11-21T02:35:34;13.40;99.90
10175;DHT22;18221;38.704;0.152;2023-11-21T02:38:02;13.50;99.90
10175;DHT22;18221;38.704;0.152;2023-11-21T02:40:32;13.50;99.90
10175;DHT22;18221;38.704;0.152;2023-11-21T02:43:00;13.60;99.90
10175;DHT22;18221;38.704;0.152;2023-11-21T02:45:28;13.60;99.90
10175;DHT22;18221;38.704;0.152;2023-11-21T02:47:56;13.60;99.90
10175;DHT22;18221;38.704;0.152;2023-11-21T02:50:25;13.60;99.90
10175;DHT22;18221;38.704;0.152;2023-11-21T02:52:53;13.60;99.90
10175;DHT22;18221;38.704;0.152;2023-11-21T02:55:23;13.70;99.90
10175;DHT22;18221;38.704;0.152;2023-11-21T02:57:53;13.70;99.90
10175;DHT22;18221;38.704;0.152;2023-11-21T03:00:22;13.80;99.90
10175;DHT22;18221;38.704;0.152;2023-11-21T03:02:51;13.80;99.90
10175;DHT22;18221;38.704;0.152;2023-11-21T03:05:19;13.80;99.90
10175;DHT22;18221;38.704;0.152;2023-11-21T03:07:47;13.80;99.90
10175;DHT22;18221;38.704;0.152;2023-11-21T03:10:15;13.80;99.90
10175;DHT22;18221;38.704;0.152;2023-11-21T03:12:43;13.70;99.90
10175;DHT22;18221;38.704;0.152;2023-11-21T03:15:12;13.70;99.90
10175;DHT22;18221;38.704;0.152;2023-11-21T03:17:40;13.70;99.90
10175;DHT22;18221;38.704;0.152;2023-11-21T03:20:09;13.70;99.90
10175;DHT22;18221;38.704;0.152;2023-11-21T03:22:39;13.70;99.90
10175;DHT22;18221;38.704;0.152;2023-11-21T03:25:08;13.80;99.90
10175;DHT22;18221;38.704;0.152;2023-11-21T03:27:37;13.80;99.90
10175;DHT22;18221;38.704;0.152;2023-11-21T03:30:09;13.80;99.90
10175;DHT22;18221;38.704;0.152;2023-11-21T03:32:39;13.80;99.90
10175;DHT22;18221;38.704;0.152;2023-11-21T03:35:07;13.80;99.90
10175;DHT22;18221;38.704;0.152;2023-11-21T03:37:35;13.80;99.90
10175;DHT22;18221;38.704;0.152;2023-11-21T03:40:05;13.90;99.90
10175;DHT22;18221;38.704;0.152;2023-11-21T03:42:40;13.80;99.90
10175;DHT22;18221;38.704;0.152;2023-11-21T03:45:08;13.80;99.90
10175;DHT22;18221;38.704;0.152;2023-11-21T03:47:40;13.80;99.90
10175;DHT22;18221;38.704;0.152;2023-11-21T03:50:09;13.80;99.90
10175;DHT22;18221;38.704;0.152;2023-11-21T03:52:37;13.80;99.90
10175;DHT22;18221;38.704;0.152;2023-11-21T03:55:06;13.80;99.90
10175;DHT22;18221;38.704;0.152;2023-11-21T03:57:34;13.90;99.90
10175;DHT22;18221;38.704;0.152;2023-11-21T04:00:02;13.90;99.90
10175;DHT22;18221;38.704;0.152;2023-11-21T04:02:34;13.90;99.90
10175;DHT22;18221;38.704;0.152;2023-11-21T04:05:04;13.90;99.90
10175;DHT22;18221;38.704;0.152;2023-11-21T04:07:33;13.90;99.90
10175;DHT22;18221;38.704;0.152;2023-11-21T04:10:01;13.90;99.90
10175;DHT22;18221;38.704;0.152;2023-11-21T04:12:29;13.90;99.90
10175;DHT22;18221;38.704;0.152;2023-11-21T04:14:57;13.80;99.90
10175;DHT22;18221;38.704;0.152;2023-11-21T04:17:25;13.80;99.90
10175;DHT22;18221;38.704;0.152;2023-11-21T04:19:53;13.80;99.90
10175;DHT22;18221;38.704;0.152;2023-11-21T04:22:23;13.80;99.90
10175;DHT22;18221;38.704;0.152;2023-11-21T04:24:51;13.80;99.90
10175;DHT22;18221;38.704;0.152;2023-11-21T04:27:19;13.80;99.90
10175;DHT22;18221;38.704;0.152;2023-11-21T04:29:46;13.80;99.90
10175;DHT22;18221;38.704;0.152;2023-11-21T04:32:14;13.80;99.90
10175;DHT22;18221;38.704;0.152;2023-11-21T04:34:43;13.80;99.90
10175;DHT22;18221;38.704;0.152;2023-11-21T04:37:11;13.80;99.90
10175;DHT22;18221;38.704;0.152;2023-11-21T04:39:40;13.80;99.90
10175;DHT22;18221;38.704;0.152;2023-11-21T04:42:08;13.80;99.90
10175;DHT22;18221;38.704;0.152;2023-11-21T04:44:36;13.90;99.90
10175;DHT22;18221;38.704;0.152;2023-11-21T04:47:07;13.90;99.90
10175;DHT22;18221;38.704;0.152;2023-11-21T04:49:34;13.90;99.90
10175;DHT22;18221;38.704;0.152;2023-11-21T04:52:03;13.90;99.90
10175;DHT22;18221;38.704;0.152;2023-11-21T04:54:31;13.90;99.90
10175;DHT22;18221;38.704;0.152;2023-11-21T04:57:00;14.00;99.90
10175;DHT22;18221;38.704;0.152;2023-11-21T04:59:28;14.00;99.90
10175;DHT22;18221;38.704;0.152;2023-11-21T05:01:56;14.00;99.90
10175;DHT22;18221;38.704;0.152;2023-11-21T05:04:26;14.00;99.90
10175;DHT22;18221;38.704;0.152;2023-11-21T05:06:54;14.10;99.90
10175;DHT22;18221;38.704;0.152;2023-11-21T05:09:22;14.10;99.90
10175;DHT22;18221;38.704;0.152;2023-11-21T05:11:50;14.10;99.90
10175;DHT22;18221;38.704;0.152;2023-11-21T05:14:22;14.10;99.90
10175;DHT22;18221;38.704;0.152;2023-11-21T05:16:50;14.10;99.90
10175;DHT22;18221;38.704;0.152;2023-11-21T05:19:19;14.00;99.90
10175;DHT22;18221;38.704;0.152;2023-11-21T05:21:47;14.10;99.90
10175;DHT22;18221;38.704;0.152;2023-11-21T05:24:15;15.50;99.90
10175;DHT22;18221;38.704;0.152;2023-11-21T05:26:43;14.00;99.90
10175;DHT22;18221;38.704;0.152;2023-11-21T05:29:11;14.00;99.90
10175;DHT22;18221;38.704;0.152;2023-11-21T05:31:40;14.00;99.90
10175;DHT22;18221;38.704;0.152;2023-11-21T05:34:08;14.00;99.90
10175;DHT22;18221;38.704;0.152;2023-11-21T05:36:36;13.90;99.90
10175;DHT22;18221;38.704;0.152;2023-11-21T05:39:04;13.90;99.90
10175;DHT22;18221;38.704;0.152;2023-11-21T05:41:32;13.90;99.90
10175;DHT22;18221;38.704;0.152;2023-11-21T05:44:00;13.90;99.90
10175;DHT22;18221;38.704;0.152;2023-11-21T05:46:28;13.90;99.90
10175;DHT22;18221;38.704;0.152;2023-11-21T05:48:58;13.90;99.90
10175;DHT22;18221;38.704;0.152;2023-11-21T05:51:26;13.90;99.90
10175;DHT22;18221;38.704;0.152;2023-11-21T05:53:54;13.90;99.90
10175;DHT22;18221;38.704;0.152;2023-11-21T05:56:21;13.90;99.90
10175;DHT22;18221;38.704;0.152;2023-11-21T05:58:49;13.90;99.90
10175;DHT22;18221;38.704;0.152;2023-11-21T06:01:18;13.90;99.90
10175;DHT22;18221;38.704;0.152;2023-11-21T06:03:46;13.90;99.90
10175;DHT22;18221;38.704;0.152;2023-11-21T06:06:15;13.90;99.90
10175;DHT22;18221;38.704;0.152;2023-11-21T06:08:45;13.80;99.90
10175;DHT22;18221;38.704;0.152;2023-11-21T06:11:13;13.80;99.90
10175;DHT22;18221;38.704;0.152;2023-11-21T06:13:42;13.90;99.90
10175;DHT22;18221;38.704;0.152;2023-11-21T06:16:10;13.90;99.90
10175;DHT22;18221;38.704;0.152;2023-11-21T06:18:42;13.90;99.90
10175;DHT22;18221;38.704;0.152;2023-11-21T06:21:10;13.90;99.90
10175;DHT22;18221;38.704;0.152;2023-11-21T06:23:41;13.80;99.90
10175;DHT22;18221;38.704;0.152;2023-11-21T06:26:09;13.80;99.90
10175;DHT22;18221;38.704;0.152;2023-11-21T06:28:36;13.70;99.90
10175;DHT22;18221;38.704;0.152;2023-11-21T06:31:04;13.70;99.90
10175;DHT22;18221;38.704;0.152;2023-11-21T06:33:33;13.70;99.90
10175;DHT22;18221;38.704;0.152;2023-11-21T06:36:01;13.70;99.90
10175;DHT22;18221;38.704;0.152;2023-11-21T06:38:29;13.70;99.90
10175;DHT22;18221;38.704;0.152;2023-11-21T06:40:59;13.70;99.90
10175;DHT22;18221;38.704;0.152;2023-11-21T06:43:28;13.70;99.90
10175;DHT22;18221;38.704;0.152;2023-11-21T06:45:57;13.70;99.90
10175;DHT22;18221;38.704;0.152;2023-11-21T06:48:25;13.70;99.90
10175;DHT22;18221;38.704;0.152;2023-11-21T06:50:53;13.70;99.90
10175;DHT22;18221;38.704;0.152;2023-11-21T06:53:20;13.80;99.90
10175;DHT22;18221;38.704;0.152;2023-11-21T06:55:48;13.80;99.90
10175;DHT22;18221;38.704;0.152;2023-11-21T06:58:17;13.80;99.90
10175;DHT22;18221;38.704;0.152;2023-11-21T07:00:45;13.80;99.90
10175;DHT22;18221;38.704;0.152;2023-11-21T07:03:16;13.80;99.90
10175;DHT22;18221;38.704;0.152;2023-11-21T07:05:45;13.90;99.90
10175;DHT22;18221;38.704;0.152;2023-11-21T07:08:15;13.90;99.90
10175;DHT22;18221;38.704;0.152;2023-11-21T07:10:43;13.90;99.90
10175;DHT22;18221;38.704;0.152;2023-11-21T07:13:11;14.00;99.90
10175;DHT22;18221;38.704;0.152;2023-11-21T07:15:41;14.00;99.90
10175;DHT22;18221;38.704;0.152;2023-11-21T07:18:09;14.00;99.90
10175;DHT22;18221;38.704;0.152;2023-11-21T07:20:37;14.00;99.90
10175;DHT22;18221;38.704;0.152;2023-11-21T07:23:05;14.00;99.90
10175;DHT22;18221;38.704;0.152;2023-11-21T07:25:33;14.00;99.90
10175;DHT22;18221;38.704;0.152;2023-11-21T07:28:03;14.00;99.90
10175;DHT22;18221;38.704;0.152;2023-11-21T07:30:32;14.00;99.90
10175;DHT22;18221;38.704;0.152;2023-11-21T07:33:01;14.00;99.90
10175;DHT22;18221;38.704;0.152;2023-11-21T07:35:29;14.00;99.90
10175;DHT22;18221;38.704;0.152;2023-11-21T07:37:57;14.10;99.90
10175;DHT22;18221;38.704;0.152;2023-11-21T07:40:25;14.00;99.90
10175;DHT22;18221;38.704;0.152;2023-11-21T07:42:53;14.10;99.90
10175;DHT22;18221;38.704;0.152;2023-11-21T07:45:23;14.10;99.90
10175;DHT22;18221;38.704;0.152;2023-11-21T07:47:53;14.10;99.90
10175;DHT22;18221;38.704;0.152;2023-11-21T07:50:23;14.20;99.90
10175;DHT22;18221;38.704;0.152;2023-11-21T07:52:52;14.20;99.90
10175;DHT22;18221;38.704;0.152;2023-11-21T07:55:21;14.30;99.90
10175;DHT22;18221;38.704;0.152;2023-11-21T07:57:49;14.40;99.90
10175;DHT22;18221;38.704;0.152;2023-11-21T08:00:18;14.40;99.90
10175;DHT22;18221;38.704;0.152;2023-11-21T08:02:47;14.50;99.90
10175;DHT22;18221;38.704;0.152;2023-11-21T08:05:16;14.50;99.90
10175;DHT22;18221;38.704;0.152;2023-11-21T08:07:46;14.50;99.90
10175;DHT22;18221;38.704;0.152;2023-11-21T08:10:14;14.50;99.90
10175;DHT22;18221;38.704;0.152;2023-11-21T08:12:43;14.60;99.90
10175;DHT22;18221;38.704;0.152;2023-11-21T08:15:11;14.50;99.90
10175;DHT22;18221;38.704;0.152;2023-11-21T08:17:39;14.60;99.90
10175;DHT22;18221;38.704;0.152;2023-11-21T08:20:07;14.60;99.90
10175;DHT22;18221;38.704;0.152;2023-11-21T08:22:37;14.60;99.90
10175;DHT22;18221;38.704;0.152;2023-11-21T08:25:09;14.60;99.90
10175;DHT22;18221;38.704;0.152;2023-11-21T08:27:37;14.60;99.90
10175;DHT22;18221;38.704;0.152;2023-11-21T08:30:06;14.60;99.90
10175;DHT22;18221;38.704;0.152;2023-11-21T08:32:34;14.60;99.90
10175;DHT22;18221;38.704;0.152;2023-11-21T08:35:02;14.80;99.90
10175;DHT22;18221;38.704;0.152;2023-11-21T08:37:31;14.50;99.90
10175;DHT22;18221;38.704;0.152;2023-11-21T08:40:03;14.60;99.90
10175;DHT22;18221;38.704;0.152;2023-11-21T08:42:36;14.60;99.90
10175;DHT22;18221;38.704;0.152;2023-11-21T08:45:05;14.60;99.90
10175;DHT22;18221;38.704;0.152;2023-11-21T08:47:34;14.60;99.90
10175;DHT22;18221;38.704;0.152;2023-11-21T08:50:03;14.60;99.90
10175;DHT22;18221;38.704;0.152;2023-11-21T08:52:33;14.70;99.90
10175;DHT22;18221;38.704;0.152;2023-11-21T08:55:04;14.60;99.90
10175;DHT22;18221;38.704;0.152;2023-11-21T08:57:34;14.60;99.90
10175;DHT22;18221;38.704;0.152;2023-11-21T09:00:04;14.70;99.90
10175;DHT22;18221;38.704;0.152;2023-11-21T09:02:37;14.70;99.90
10175;DHT22;18221;38.704;0.152;2023-11-21T09:05:08;14.60;99.90
10175;DHT22;18221;38.704;0.152;2023-11-21T09:07:36;14.70;99.90
10175;DHT22;18221;38.704;0.152;2023-11-21T09:10:07;14.80;99.90
10175;DHT22;18221;38.704;0.152;2023-11-21T09:12:37;14.80;99.90
10175;DHT22;18221;38.704;0.152;2023-11-21T09:15:06;14.80;99.90
10175;DHT22;18221;38.704;0.152;2023-11-21T09:17:38;14.80;99.90
10175;DHT22;18221;38.704;0.152;2023-11-21T09:20:09;14.90;99.90
10175;DHT22;18221;38.704;0.152;2023-11-21T09:22:37;14.90;99.90
10175;DHT22;18221;38.704;0.152;2023-11-21T09:25:06;14.90;99.90
10175;DHT22;18221;38.704;0.152;2023-11-21T09:27:35;15.00;99.90
10175;DHT22;18221;38.704;0.152;2023-11-21T09:30:04;15.00;99.90
10175;DHT22;18221;38.704;0.152;2023-11-21T09:32:35;15.00;99.90
10175;DHT22;18221;38.704;0.152;2023-11-21T09:35:04;15.00;99.90
10175;DHT22;18221;38.704;0.152;2023-11-21T09:37:34;15.10;99.90
10175;DHT22;18221;38.704;0.152;2023-11-21T09:40:04;15.10;99.90
10175;DHT22;18221;38.704;0.152;2023-11-21T09:42:43;15.20;99.90
10175;DHT22;18221;38.704;0.152;2023-11-21T09:45:25;15.20;99.90
10175;DHT22;18221;38.704;0.152;2023-11-21T09:47:55;15.30;99.90
10175;DHT22;18221;38.704;0.152;2023-11-21T09:50:24;15.30;99.90
10175;DHT22;18221;38.704;0.152;2023-11-21T09:52:58;15.20;99.90
10175;DHT22;18221;38.704;0.152;2023-11-21T09:55:42;15.30;99.90
10175;DHT22;18221;38.704;0.152;2023-11-21T09:58:13;15.30;99.90
10175;DHT22;18221;38.704;0.152;2023-11-21T10:00:43;15.30;99.90
10175;DHT22;18221;38.704;0.152;2023-11-21T10:03:12;15.50;99.90
10175;DHT22;18221;38.704;0.152;2023-11-21T10:05:42;15.40;99.90
10175;DHT22;18221;38.704;0.152;2023-11-21T10:08:12;15.50;99.90
10175;DHT22;18221;38.704;0.152;2023-11-21T10:10:43;15.60;99.90
10175;DHT22;18221;38.704;0.152;2023-11-21T10:13:15;15.60;99.90
10175;DHT22;18221;38.704;0.152;2023-11-21T10:15:50;15.70;99.90
10175;DHT22;18221;38.704;0.152;2023-11-21T10:18:19;15.70;99.90
10175;DHT22;18221;38.704;0.152;2023-11-21T10:20:49;16.10;99.90
10175;DHT22;18221;38.704;0.152;2023-11-21T10:23:19;15.90;99.90
10175;DHT22;18221;38.704;0.152;2023-11-21T10:25:48;15.90;99.90
10175;DHT22;18221;38.704;0.152;2023-11-21T10:28:19;16.00;99.90
10175;DHT22;18221;38.704;0.152;2023-11-21T10:30:47;16.00;99.90
10175;DHT22;18221;38.704;0.152;2023-11-21T10:33:15;16.10;99.90
10175;DHT22;18221;38.704;0.152;2023-11-21T10:35:43;16.10;99.90
10175;DHT22;18221;38.704;0.152;2023-11-21T10:38:17;16.10;99.90
10175;DHT22;18221;38.704;0.152;2023-11-21T10:40:47;16.20;99.90
10175;DHT22;18221;38.704;0.152;2023-11-21T10:43:15;16.20;99.90
10175;DHT22;18221;38.704;0.152;2023-11-21T10:45:45;16.30;99.90
10175;DHT22;18221;38.704;0.152;2023-11-21T10:48:15;16.30;99.90
10175;DHT22;18221;38.704;0.152;2023-11-21T10:50:45;16.30;99.90
10175;DHT22;18221;38.704;0.152;2023-11-21T10:53:14;16.30;99.90
10175;DHT22;18221;38.704;0.152;2023-11-21T10:55:42;16.30;99.90
10175;DHT22;18221;38.704;0.152;2023-11-21T10:58:13;16.30;99.90
10175;DHT22;18221;38.704;0.152;2023-11-21T11:00:45;16.30;99.90
10175;DHT22;18221;38.704;0.152;2023-11-21T11:03:13;16.30;99.90
10175;DHT22;18221;38.704;0.152;2023-11-21T11:05:43;16.40;99.90
10175;DHT22;18221;38.704;0.152;2023-11-21T11:08:19;16.40;99.90
10175;DHT22;18221;38.704;0.152;2023-11-21T11:10:52;16.40;99.90
10175;DHT22;18221;38.704;0.152;2023-11-21T11:13:20;16.40;99.90
10175;DHT22;18221;38.704;0.152;2023-11-21T11:15:50;16.40;99.90
10175;DHT22;18221;38.704;0.152;2023-11-21T11:18:25;16.40;99.90
10175;DHT22;18221;38.704;0.152;2023-11-21T11:20:53;16.30;99.90
10175;DHT22;18221;38.704;0.152;2023-11-21T11:23:46;16.30;99.90
10175;DHT22;18221;38.704;0.152;2023-11-21T11:26:32;16.30;99.90
10175;DHT22;18221;38.704;0.152;2023-11-21T11:29:17;16.30;99.90
10175;DHT22;18221;38.704;0.152;2023-11-21T11:32:10;16.30;99.90
10175;DHT22;18221;38.704;0.152;2023-11-21T11:34:53;16.40;99.90
10175;DHT22;18221;38.704;0.152;2023-11-21T11:37:27;16.40;99.90
10175;DHT22;18221;38.704;0.152;2023-11-21T11:39:56;16.50;99.90
10175;DHT22;18221;38.704;0.152;2023-11-21T11:42:24;16.50;99.90
10175;DHT22;18221;38.704;0.152;2023-11-21T11:44:55;16.60;99.90
10175;DHT22;18221;38.704;0.152;2023-11-21T11:47:26;16.60;99.90
10175;DHT22;18221;38.704;0.152;2023-11-21T11:50:03;16.60;99.90
10175;DHT22;18221;38.704;0.152;2023-11-21T11:52:38;16.70;99.90
10175;DHT22;18221;38.704;0.152;2023-11-21T11:55:08;16.80;99.90
10175;DHT22;18221;38.704;0.152;2023-11-21T11:57:39;16.80;99.90
10175;DHT22;18221;38.704;0.152;2023-11-21T12:00:12;16.80;99.90
10175;DHT22;18221;38.704;0.152;2023-11-21T12:02:48;16.90;99.90
10175;DHT22;18221;38.704;0.152;2023-11-21T12:05:19;16.90;99.90
10175;DHT22;18221;38.704;0.152;2023-11-21T12:07:50;17.00;99.90
10175;DHT22;18221;38.704;0.152;2023-11-21T12:10:20;17.00;99.90
10175;DHT22;18221;38.704;0.152;2023-11-21T12:12:51;17.10;99.90
10175;DHT22;18221;38.704;0.152;2023-11-21T12:15:20;17.20;99.90
10175;DHT22;18221;38.704;0.152;2023-11-21T12:17:50;17.20;99.90
10175;DHT22;18221;38.704;0.152;2023-11-21T12:20:19;17.00;99.90
10175;DHT22;18221;38.704;0.152;2023-11-21T12:22:50;17.40;99.90
10175;DHT22;18221;38.704;0.152;2023-11-21T12:25:20;17.40;99.90
10175;DHT22;18221;38.704;0.152;2023-11-21T12:27:50;17.50;99.90
10175;DHT22;18221;38.704;0.152;2023-11-21T12:30:21;17.50;99.90
10175;DHT22;18221;38.704;0.152;2023-11-21T12:32:52;17.50;99.90
10175;DHT22;18221;38.704;0.152;2023-11-21T12:35:23;17.60;99.90
10175;DHT22;18221;38.704;0.152;2023-11-21T12:37:54;17.70;99.90
10175;DHT22;18221;38.704;0.152;2023-11-21T12:40:23;17.80;99.90
10175;DHT22;18221;38.704;0.152;2023-11-21T12:42:53;17.80;99.90
10175;DHT22;18221;38.704;0.152;2023-11-21T12:45:23;17.80;99.90
10175;DHT22;18221;38.704;0.152;2023-11-21T12:47:55;17.80;99.90
10175;DHT22;18221;38.704;0.152;2023-11-21T12:50:27;17.80;99.90
10175;DHT22;18221;38.704;0.152;2023-11-21T12:52:59;17.90;99.90
10175;DHT22;18221;38.704;0.152;2023-11-21T12:55:31;17.90;99.90
10175;DHT22;18221;38.704;0.152;2023-11-21T12:58:04;18.00;99.90
10175;DHT22;18221;38.704;0.152;2023-11-21T13:00:35;18.00;99.90
10175;DHT22;18221;38.704;0.152;2023-11-21T13:03:08;18.10;99.90
10175;DHT22;18221;38.704;0.152;2023-11-21T13:05:39;18.10;99.90
10175;DHT22;18221;38.704;0.152;2023-11-21T13:08:11;18.20;99.90
10175;DHT22;18221;38.704;0.152;2023-11-21T13:10:44;18.20;99.90
10175;DHT22;18221;38.704;0.152;2023-11-21T13:13:13;18.20;99.90
10175;DHT22;18221;38.704;0.152;2023-11-21T13:15:48;18.20;99.90
10175;DHT22;18221;38.704;0.152;2023-11-21T13:18:18;18.20;99.90
10175;DHT22;18221;38.704;0.152;2023-11-21T13:20:49;18.10;99.90
10175;DHT22;18221;38.704;0.152;2023-11-21T13:23:17;18.20;99.90
10175;DHT22;18221;38.704;0.152;2023-11-21T13:25:45;18.20;99.90
10175;DHT22;18221;38.704;0.152;2023-11-21T13:28:15;18.30;99.90
10175;DHT22;18221;38.704;0.152;2023-11-21T13:30:44;18.30;99.90
10175;DHT22;18221;38.704;0.152;2023-11-21T13:33:13;18.30;99.90
10175;DHT22;18221;38.704;0.152;2023-11-21T13:35:45;18.40;99.90
10175;DHT22;18221;38.704;0.152;2023-11-21T13:38:16;18.50;99.90
10175;DHT22;18221;38.704;0.152;2023-11-21T13:40:49;18.50;99.90
10175;DHT22;18221;38.704;0.152;2023-11-21T13:43:21;18.50;99.90
10175;DHT22;18221;38.704;0.152;2023-11-21T13:45:52;18.50;99.90
10175;DHT22;18221;38.704;0.152;2023-11-21T13:48:26;18.50;99.90
10175;DHT22;18221;38.704;0.152;2023-11-21T13:51:01;18.60;99.90
10175;DHT22;18221;38.704;0.152;2023-11-21T13:53:42;18.60;99.90
10175;DHT22;18221;38.704;0.152;2023-11-21T13:56:10;18.60;99.90
10175;DHT22;18221;38.704;0.152;2023-11-21T13:58:42;18.60;99.90
10175;DHT22;18221;38.704;0.152;2023-11-21T14:01:13;18.60;99.90
10175;DHT22;18221;38.704;0.152;2023-11-21T14:04:02;18.60;99.90
10175;DHT22;18221;38.704;0.152;2023-11-21T14:06:47;18.70;99.90
10175;DHT22;18221;38.704;0.152;2023-11-21T14:09:20;18.50;99.90
10175;DHT22;18221;38.704;0.152;2023-11-21T14:11:51;18.50;99.90
10175;DHT22;18221;38.704;0.152;2023-11-21T14:14:19;18.50;99.90
10175;DHT22;18221;38.704;0.152;2023-11-21T14:16:49;18.40;99.90
10175;DHT22;18221;38.704;0.152;2023-11-21T14:19:17;18.50;99.90
10175;DHT22;18221;38.704;0.152;2023-11-21T14:21:48;18.40;99.90
10175;DHT22;18221;38.704;0.152;2023-11-21T14:24:16;18.30;99.90
10175;DHT22;18221;38.704;0.152;2023-11-21T14:26:45;18.30;99.90
10175;DHT22;18221;38.704;0.152;2023-11-21T14:29:14;18.30;99.90
10175;DHT22;18221;38.704;0.152;2023-11-21T14:31:46;18.30;99.90
10175;DHT22;18221;38.704;0.152;2023-11-21T14:34:14;18.30;99.90
10175;DHT22;18221;38.704;0.152;2023-11-21T14:36:42;18.30;99.90
10175;DHT22;18221;38.704;0.152;2023-11-21T14:39:12;18.30;99.90
10175;DHT22;18221;38.704;0.152;2023-11-21T14:41:48;18.20;99.90
10175;DHT22;18221;38.704;0.152;2023-11-21T14:44:17;18.20;99.90
10175;DHT22;18221;38.704;0.152;2023-11-21T14:46:45;18.20;99.90
10175;DHT22;18221;38.704;0.152;2023-11-21T14:49:16;18.20;99.90
10175;DHT22;18221;38.704;0.152;2023-11-21T14:51:47;18.20;99.90
10175;DHT22;18221;38.704;0.152;2023-11-21T14:54:30;18.20;99.90
10175;DHT22;18221;38.704;0.152;2023-11-21T14:57:12;18.10;99.90
10175;DHT22;18221;38.704;0.152;2023-11-21T14:59:44;18.00;99.90
10175;DHT22;18221;38.704;0.152;2023-11-21T15:02:15;17.90;99.90
10175;DHT22;18221;38.704;0.152;2023-11-21T15:04:46;17.80;99.90
10175;DHT22;18221;38.704;0.152;2023-11-21T15:07:17;17.80;99.90
10175;DHT22;18221;38.704;0.152;2023-11-21T15:09:46;17.70;99.90
10175;DHT22;18221;38.704;0.152;2023-11-21T15:12:15;17.70;99.90
10175;DHT22;18221;38.704;0.152;2023-11-21T15:14:43;17.50;99.90
10175;DHT22;18221;38.704;0.152;2023-11-21T15:17:14;17.50;99.90
10175;DHT22;18221;38.704;0.152;2023-11-21T15:19:48;17.40;99.90
10175;DHT22;18221;38.704;0.152;2023-11-21T15:22:16;17.30;99.90
10175;DHT22;18221;38.704;0.152;2023-11-21T15:24:46;17.30;99.90
10175;DHT22;18221;38.704;0.152;2023-11-21T15:27:16;17.20;99.90
10175;DHT22;18221;38.704;0.152;2023-11-21T15:29:44;17.10;99.90
10175;DHT22;18221;38.704;0.152;2023-11-21T15:32:13;17.10;99.90
10175;DHT22;18221;38.704;0.152;2023-11-21T15:34:41;17.10;99.90
10175;DHT22;18221;38.704;0.152;2023-11-21T15:37:09;17.00;99.90
10175;DHT22;18221;38.704;0.152;2023-11-21T15:39:38;17.10;99.90
10175;DHT22;18221;38.704;0.152;2023-11-21T15:42:08;17.00;99.90
10175;DHT22;18221;38.704;0.152;2023-11-21T15:44:37;16.90;99.90
10175;DHT22;18221;38.704;0.152;2023-11-21T15:47:05;16.80;99.90